Time;durP1;ratioP1;P1;durP2;ratioP2;P2;SDS_P1;SDS_P2;PMS_P1;PMS_P2;Temp;Humidity;BMP_temperature;BMP_pressure;BME280_temperature;BME280_humidity;BME280_pressure;Samples;Min_cycle;Max_cycle;Signal;HPM_P1;HPM_P2
2020/12/31 00:01:30;;;;;;;21.45;19.10;;;2.90;99.90;;;;;;5042442;28;20489;-71
2020/12/31 00:03:56;;;;;;;22.13;19.63;;;2.80;99.90;;;;;;5041322;28;20052;-70
2020/12/31 00:06:23;;;;;;;24.02;19.98;;;2.80;99.90;;;;;;5032669;28;20129;-70
2020/12/31 00:08:49;;;;;;;22.55;20.25;;;2.90;99.90;;;;;;5041322;28;20051;-71
2020/12/31 00:11:16;;;;;;;23.52;20.65;;;2.90;99.90;;;;;;5043463;28;20052;-71
2020/12/31 00:13:42;;;;;;;22.67;20.20;;;2.80;99.90;;;;;;5045580;28;20056;-70
2020/12/31 00:16:08;;;;;;;24.40;21.23;;;2.80;99.90;;;;;;5045639;28;20681;-71
2020/12/31 00:18:35;;;;;;;24.67;21.45;;;2.80;99.90;;;;;;5045849;28;20076;-71
2020/12/31 00:21:02;;;;;;;27.23;21.35;;;2.80;99.90;;;;;;5034560;28;20036;-70
2020/12/31 00:23:29;;;;;;;24.98;19.02;;;2.80;99.90;;;;;;5035991;28;20060;-72
2020/12/31 00:25:55;;;;;;;23.02;20.70;;;2.80;99.90;;;;;;5035023;28;20064;-71
2020/12/31 00:28:22;;;;;;;24.80;21.75;;;2.80;99.90;;;;;;5025863;28;20061;-71
2020/12/31 00:30:49;;;;;;;21.67;19.35;;;2.80;99.90;;;;;;5025417;28;20171;-71
2020/12/31 00:33:17;;;;;;;25.30;20.33;;;2.90;99.90;;;;;;5024670;28;20716;-71
2020/12/31 00:35:49;;;;;;;23.40;19.27;;;2.90;99.90;;;;;;5035560;28;20045;-70
2020/12/31 00:38:16;;;;;;;21.45;18.98;;;2.90;99.90;;;;;;5039783;28;20060;-71
2020/12/31 00:40:43;;;;;;;21.67;19.27;;;2.90;99.90;;;;;;5044720;28;20079;-71
2020/12/31 00:43:09;;;;;;;19.98;18.17;;;2.90;99.90;;;;;;5023900;28;20045;-71
2020/12/31 00:45:35;;;;;;;20.55;18.55;;;2.80;99.90;;;;;;5023855;28;20099;-71
2020/12/31 00:48:02;;;;;;;20.95;18.75;;;2.80;99.90;;;;;;5023311;28;20053;-71
2020/12/31 00:50:29;;;;;;;19.90;18.00;;;2.90;99.90;;;;;;5036264;28;20424;-71
2020/12/31 00:52:55;;;;;;;20.58;18.42;;;2.90;99.90;;;;;;5042767;28;20053;-71
2020/12/31 00:55:22;;;;;;;20.55;18.42;;;2.90;99.90;;;;;;5008786;28;20424;-71
2020/12/31 00:57:51;;;;;;;22.13;17.95;;;2.90;99.90;;;;;;5033646;28;20063;-71
2020/12/31 01:00:19;;;;;;;21.90;18.73;;;2.80;99.90;;;;;;5037153;28;20148;-71
2020/12/31 01:03:06;;;;;;;19.67;17.65;;;2.80;99.90;;;;;;5044586;28;20064;-72
2020/12/31 01:05:33;;;;;;;20.35;18.05;;;2.80;99.90;;;;;;5044102;28;20139;-71
2020/12/31 01:08:00;;;;;;;18.92;16.63;;;2.80;99.90;;;;;;5035158;28;20049;-71
2020/12/31 01:10:26;;;;;;;22.38;18.40;;;2.80;99.90;;;;;;5030369;28;20410;-72
2020/12/31 01:12:53;;;;;;;20.23;18.13;;;2.70;99.90;;;;;;5043282;28;20180;-72
2020/12/31 01:15:19;;;;;;;20.30;18.20;;;2.60;99.90;;;;;;5043632;28;20504;-71
2020/12/31 01:17:45;;;;;;;20.90;18.90;;;2.60;99.90;;;;;;5044403;28;20421;-71
2020/12/31 01:20:12;;;;;;;20.45;18.20;;;2.50;99.90;;;;;;5044225;28;20053;-71
2020/12/31 01:22:38;;;;;;;20.20;18.17;;;2.50;99.90;;;;;;5044145;28;20060;-71
2020/12/31 01:25:05;;;;;;;18.55;16.75;;;2.40;99.90;;;;;;5043968;28;20065;-70
2020/12/31 01:27:32;;;;;;;18.65;16.75;;;2.40;99.90;;;;;;5044241;28;20059;-70
2020/12/31 01:29:58;;;;;;;19.50;17.52;;;2.40;99.90;;;;;;5044080;28;20045;-71
2020/12/31 01:32:25;;;;;;;18.45;16.10;;;2.40;99.90;;;;;;5039919;28;20059;-71
2020/12/31 01:34:52;;;;;;;20.15;17.45;;;2.40;99.90;;;;;;5036545;28;20053;-70
2020/12/31 01:37:19;;;;;;;20.20;17.95;;;2.40;99.90;;;;;;5035562;28;20181;-71
2020/12/31 01:39:46;;;;;;;19.17;17.10;;;2.50;99.90;;;;;;5044197;28;20064;-70
2020/12/31 01:42:12;;;;;;;19.88;18.08;;;2.50;99.90;;;;;;5043810;28;20642;-70
2020/12/31 01:44:39;;;;;;;20.88;18.38;;;2.50;99.90;;;;;;5043805;28;20071;-71
2020/12/31 01:47:08;;;;;;;20.40;18.17;;;2.50;99.90;;;;;;5043580;28;20060;-71
2020/12/31 01:49:36;;;;;;;20.40;18.38;;;2.40;99.90;;;;;;5039842;28;20053;-71
2020/12/31 01:52:02;;;;;;;20.33;18.33;;;2.40;99.90;;;;;;5022536;28;20061;-72
2020/12/31 01:54:33;;;;;;;20.00;17.88;;;2.30;99.90;;;;;;5023371;28;20570;-71
2020/12/31 01:56:59;;;;;;;18.95;17.15;;;2.20;99.90;;;;;;5032385;28;20124;-70
2020/12/31 01:59:25;;;;;;;18.20;16.38;;;2.20;99.90;;;;;;5028541;28;20050;-72
2020/12/31 02:01:53;;;;;;;17.27;15.57;;;2.10;99.90;;;;;;5039505;28;20059;-71
2020/12/31 02:04:20;;;;;;;17.58;15.88;;;2.10;99.90;;;;;;5037613;28;20057;-72
2020/12/31 02:06:47;;;;;;;18.35;15.88;;;2.10;99.90;;;;;;5032931;28;20064;-71
2020/12/31 02:09:14;;;;;;;17.45;15.70;;;2.10;99.90;;;;;;5043757;28;20459;-71
2020/12/31 02:11:41;;;;;;;17.38;15.57;;;2.00;99.90;;;;;;5043157;28;20048;-71
2020/12/31 02:14:08;;;;;;;18.27;15.23;;;2.00;99.90;;;;;;5042537;28;20053;-71
2020/12/31 02:16:37;;;;;;;16.67;14.98;;;2.00;99.90;;;;;;5041561;28;20048;-70
2020/12/31 02:19:10;;;;;;;17.02;15.23;;;2.00;99.90;;;;;;5043186;28;20676;-72
2020/12/31 02:21:49;;;;;;;16.55;14.95;;;2.00;99.90;;;;;;5038991;28;20049;-70
2020/12/31 02:24:16;;;;;;;18.63;16.65;;;2.00;99.90;;;;;;5031269;28;20087;-70
2020/12/31 02:26:45;;;;;;;17.15;15.55;;;1.90;99.90;;;;;;5031424;28;20044;-71
2020/12/31 02:29:13;;;;;;;16.83;14.80;;;1.90;99.90;;;;;;5031572;28;20114;-70
2020/12/31 02:31:41;;;;;;;17.25;15.45;;;1.90;99.90;;;;;;5024195;28;20060;-71
2020/12/31 02:34:08;;;;;;;15.90;14.50;;;1.80;99.90;;;;;;5022542;28;20060;-71
2020/12/31 02:36:37;;;;;;;17.40;15.68;;;1.80;99.90;;;;;;5040176;28;20094;-71
2020/12/31 02:39:12;;;;;;;17.00;15.32;;;1.90;99.90;;;;;;5024033;28;20461;-72
2020/12/31 02:41:39;;;;;;;17.42;15.65;;;1.90;99.90;;;;;;5035789;28;20727;-72
2020/12/31 02:44:06;;;;;;;16.42;14.88;;;1.90;99.90;;;;;;5041180;28;20143;-72
2020/12/31 02:46:33;;;;;;;16.70;15.13;;;1.90;99.90;;;;;;5041103;28;20119;-71
2020/12/31 02:48:59;;;;;;;17.05;15.45;;;1.90;99.90;;;;;;5041689;28;20483;-71
2020/12/31 02:51:26;;;;;;;15.75;14.25;;;1.80;99.90;;;;;;5043175;28;20045;-72
2020/12/31 02:53:52;;;;;;;18.33;15.63;;;1.80;99.90;;;;;;5041937;28;20060;-71
2020/12/31 02:56:20;;;;;;;16.23;14.63;;;1.70;99.90;;;;;;5035688;28;20045;-71
2020/12/31 02:58:47;;;;;;;17.80;15.90;;;1.80;99.90;;;;;;5035176;28;20067;-71
2020/12/31 03:01:15;;;;;;;16.13;14.48;;;1.80;99.90;;;;;;5037831;28;20699;-71
2020/12/31 03:03:42;;;;;;;16.95;15.25;;;1.80;99.90;;;;;;5042747;28;20543;-72
2020/12/31 03:06:08;;;;;;;18.00;16.25;;;1.80;99.90;;;;;;5038948;28;20160;-72
2020/12/31 03:08:36;;;;;;;18.25;16.35;;;1.80;99.90;;;;;;5024762;28;20144;-70
2020/12/31 03:11:15;;;;;;;17.92;15.95;;;1.80;99.90;;;;;;5039934;28;20045;-71
2020/12/31 03:13:41;;;;;;;17.67;15.88;;;1.80;99.90;;;;;;5042819;28;20057;-71
2020/12/31 03:16:08;;;;;;;17.38;15.60;;;1.80;99.90;;;;;;5041855;28;20485;-71
2020/12/31 03:18:34;;;;;;;17.38;15.68;;;1.80;99.90;;;;;;5043531;28;20437;-71
2020/12/31 03:21:00;;;;;;;23.67;17.73;;;1.80;99.90;;;;;;5041806;28;20136;-71
2020/12/31 03:23:27;;;;;;;19.23;17.25;;;1.70;99.90;;;;;;5042613;28;20048;-71
2020/12/31 03:25:53;;;;;;;20.05;17.10;;;1.70;99.90;;;;;;5021502;28;20045;-72
2020/12/31 03:28:19;;;;;;;21.58;17.30;;;1.60;99.90;;;;;;5042728;28;20057;-72
2020/12/31 03:30:46;;;;;;;22.38;17.58;;;1.50;99.90;;;;;;5040753;28;20140;-71
2020/12/31 03:33:13;;;;;;;18.60;16.58;;;1.50;99.90;;;;;;5043350;28;20506;-72
2020/12/31 03:35:46;;;;;;;18.45;15.93;;;1.40;99.90;;;;;;5039028;28;20157;-71
2020/12/31 03:38:13;;;;;;;22.88;17.23;;;1.40;99.90;;;;;;5034622;28;20063;-72
2020/12/31 03:40:40;;;;;;;18.67;16.45;;;1.50;99.90;;;;;;5040223;28;20040;-71
2020/12/31 03:43:07;;;;;;;23.17;17.20;;;1.40;99.90;;;;;;5022296;28;20081;-71
2020/12/31 03:45:34;;;;;;;25.33;17.58;;;1.40;99.90;;;;;;5023194;28;20271;-71
2020/12/31 03:48:01;;;;;;;19.88;16.98;;;1.40;99.90;;;;;;5023887;28;20046;-72
2020/12/31 03:50:27;;;;;;;22.88;17.42;;;1.40;99.90;;;;;;5026249;28;20041;-71
2020/12/31 03:52:54;;;;;;;18.17;16.30;;;1.40;99.90;;;;;;5024855;28;20111;-72
2020/12/31 03:55:21;;;;;;;19.50;15.98;;;1.40;99.90;;;;;;5025745;28;20399;-71
2020/12/31 03:57:47;;;;;;;21.33;16.58;;;1.40;99.90;;;;;;5044923;28;20416;-72
2020/12/31 04:00:14;;;;;;;22.77;16.80;;;1.40;99.90;;;;;;5044280;28;20791;-72
2020/12/31 04:02:40;;;;;;;18.42;15.98;;;1.40;99.90;;;;;;5045407;28;20597;-71
2020/12/31 04:05:07;;;;;;;18.25;16.00;;;1.40;99.90;;;;;;5044427;28;20098;-71
2020/12/31 04:07:34;;;;;;;20.85;16.50;;;1.40;99.90;;;;;;5036064;28;20052;-72
2020/12/31 04:10:01;;;;;;;22.10;16.17;;;1.40;99.90;;;;;;5044786;28;20575;-72
2020/12/31 04:12:27;;;;;;;19.90;16.48;;;1.40;99.90;;;;;;5045599;28;20571;-71
2020/12/31 04:14:53;;;;;;;19.98;16.27;;;1.40;99.90;;;;;;5044296;28;20161;-72
2020/12/31 04:17:20;;;;;;;21.83;16.63;;;1.50;99.90;;;;;;5045015;28;20052;-72
2020/12/31 04:19:46;;;;;;;22.52;17.42;;;1.60;99.90;;;;;;5045934;28;20060;-72
2020/12/31 04:22:12;;;;;;;22.08;16.77;;;1.60;99.90;;;;;;5045373;28;20059;-72
2020/12/31 04:24:39;;;;;;;23.48;16.33;;;1.60;99.90;;;;;;5044276;28;20053;-72
2020/12/31 04:27:05;;;;;;;19.83;17.05;;;1.60;99.90;;;;;;5044945;28;20063;-72
2020/12/31 04:29:31;;;;;;;21.15;16.52;;;1.60;99.90;;;;;;5044862;28;20055;-72
2020/12/31 04:31:58;;;;;;;18.98;16.17;;;1.60;99.90;;;;;;5045136;28;20041;-72
2020/12/31 04:34:24;;;;;;;21.25;16.92;;;1.60;99.90;;;;;;5045460;28;20053;-72
2020/12/31 04:36:50;;;;;;;22.88;17.10;;;1.70;99.90;;;;;;5037611;28;20041;-71
2020/12/31 04:39:17;;;;;;;18.73;16.05;;;1.70;99.90;;;;;;5036704;28;20057;-71
2020/12/31 04:41:43;;;;;;;22.38;17.35;;;1.60;99.90;;;;;;5035122;28;20136;-72
2020/12/31 04:44:13;;;;;;;23.92;16.98;;;1.60;99.90;;;;;;5006540;28;20418;-72
2020/12/31 04:46:41;;;;;;;22.95;17.65;;;1.80;99.90;;;;;;5024903;28;20041;-71
2020/12/31 04:49:12;;;;;;;22.02;17.63;;;1.90;99.90;;;;;;5026265;28;20221;-71
2020/12/31 04:51:38;;;;;;;24.40;17.60;;;1.90;99.90;;;;;;5045057;28;20048;-72
2020/12/31 04:54:07;;;;;;;21.52;17.52;;;1.80;99.90;;;;;;5044082;28;20573;-71
2020/12/31 04:56:37;;;;;;;22.40;17.45;;;1.80;99.90;;;;;;5041892;28;20060;-72
2020/12/31 04:59:06;;;;;;;17.65;15.82;;;1.80;99.90;;;;;;5044693;28;20386;-72
2020/12/31 05:01:33;;;;;;;23.40;17.67;;;1.70;99.90;;;;;;5042029;28;20048;-72
2020/12/31 05:03:59;;;;;;;22.48;18.15;;;1.80;99.90;;;;;;5043437;28;20032;-72
2020/12/31 05:06:27;;;;;;;22.58;17.95;;;1.80;99.90;;;;;;5041554;28;20049;-72
2020/12/31 05:08:54;;;;;;;20.48;18.05;;;1.80;99.90;;;;;;5037642;28;20055;-71
2020/12/31 05:11:20;;;;;;;19.35;17.15;;;1.80;99.90;;;;;;5022701;28;20132;-71
2020/12/31 05:13:50;;;;;;;20.10;17.02;;;1.80;99.90;;;;;;5024137;28;20049;-71
2020/12/31 05:16:28;;;;;;;19.45;16.90;;;1.90;99.90;;;;;;5021496;28;20682;-70
2020/12/31 05:18:55;;;;;;;20.75;17.35;;;1.80;99.90;;;;;;5036047;28;20060;-71
2020/12/31 05:21:22;;;;;;;23.40;17.75;;;1.90;99.90;;;;;;5044580;28;20049;-71
2020/12/31 05:23:48;;;;;;;20.80;17.80;;;1.90;99.90;;;;;;5044072;28;20053;-71
2020/12/31 05:26:29;;;;;;;20.98;17.52;;;1.90;99.90;;;;;;5043730;28;20247;-72
2020/12/31 05:28:56;;;;;;;21.70;18.35;;;1.90;99.90;;;;;;5042466;28;20049;-71
2020/12/31 05:31:23;;;;;;;19.02;17.02;;;1.90;99.90;;;;;;5042978;28;20268;-71
2020/12/31 05:33:53;;;;;;;20.08;17.75;;;2.00;99.90;;;;;;5039581;28;20116;-72
2020/12/31 05:36:25;;;;;;;21.85;18.40;;;1.90;99.90;;;;;;5039186;28;20056;-70
2020/12/31 05:38:57;;;;;;;19.88;17.90;;;2.00;99.90;;;;;;5027224;28;20054;-71
2020/12/31 05:41:24;;;;;;;21.65;18.60;;;2.00;99.90;;;;;;5036801;28;20053;-72
2020/12/31 05:43:56;;;;;;;20.13;17.95;;;2.00;99.90;;;;;;5022019;28;20067;-70
2020/12/31 05:46:23;;;;;;;21.60;17.17;;;2.00;99.90;;;;;;5026432;28;20051;-72
2020/12/31 05:48:57;;;;;;;21.88;17.90;;;2.00;99.90;;;;;;5043447;28;20041;-69
2020/12/31 05:51:25;;;;;;;21.63;17.88;;;2.00;99.90;;;;;;5043193;28;20056;-70
2020/12/31 05:53:52;;;;;;;22.88;17.48;;;2.00;99.90;;;;;;5042429;28;20592;-71
2020/12/31 05:56:20;;;;;;;20.50;18.23;;;2.10;99.90;;;;;;5037280;28;20053;-70
2020/12/31 05:58:51;;;;;;;20.50;17.65;;;2.00;99.90;;;;;;5042978;28;20458;-71
2020/12/31 06:01:18;;;;;;;19.52;17.42;;;2.00;99.90;;;;;;5042338;28;20132;-71
2020/12/31 06:03:50;;;;;;;21.45;17.60;;;2.00;99.90;;;;;;5041424;28;20118;-71
2020/12/31 06:06:19;;;;;;;20.25;17.42;;;2.00;99.90;;;;;;5040793;28;20045;-69
2020/12/31 06:08:56;;;;;;;22.58;18.75;;;2.00;99.90;;;;;;5032944;28;20135;-71
2020/12/31 06:11:34;;;;;;;24.00;18.83;;;1.90;99.90;;;;;;5022420;28;20049;-71
2020/12/31 06:14:03;;;;;;;26.20;20.08;;;1.90;99.90;;;;;;5025113;28;20484;-71
2020/12/31 06:16:37;;;;;;;23.58;18.95;;;1.90;99.90;;;;;;5041776;28;20711;-71
2020/12/31 06:19:39;;;;;;;20.77;17.73;;;1.90;99.90;;;;;;5041304;28;20498;-71
2020/12/31 06:22:08;;;;;;;23.45;18.33;;;1.90;99.90;;;;;;5042688;28;20045;-71
2020/12/31 06:24:40;;;;;;;28.60;20.85;;;1.90;99.90;;;;;;5041221;28;20045;-71
2020/12/31 06:27:11;;;;;;;28.05;19.77;;;1.90;99.90;;;;;;5024066;28;20628;-71
2020/12/31 06:29:40;;;;;;;24.67;20.30;;;1.90;99.90;;;;;;5024956;28;20461;-71
2020/12/31 06:32:14;;;;;;;24.40;20.48;;;2.00;99.90;;;;;;5024166;28;20116;-70
2020/12/31 06:34:41;;;;;;;25.27;20.70;;;2.00;99.90;;;;;;5042502;28;20674;-69
2020/12/31 06:37:12;;;;;;;23.65;19.63;;;2.00;99.90;;;;;;5040942;28;20547;-70
2020/12/31 06:39:39;;;;;;;27.42;22.17;;;2.00;99.90;;;;;;5038867;28;20041;-69
2020/12/31 06:42:06;;;;;;;24.95;20.67;;;2.00;99.90;;;;;;5034269;28;20064;-70
2020/12/31 06:44:33;;;;;;;26.02;21.30;;;2.00;99.90;;;;;;5025156;28;20045;-72
2020/12/31 06:46:59;;;;;;;26.15;20.80;;;2.00;99.90;;;;;;5037449;28;20065;-70
2020/12/31 06:49:53;;;;;;;23.40;19.90;;;2.00;99.90;;;;;;5026472;28;20063;-70
2020/12/31 06:52:23;;;;;;;22.35;19.95;;;2.00;99.90;;;;;;5034933;28;20049;-71
2020/12/31 06:54:50;;;;;;;23.40;20.33;;;2.00;99.90;;;;;;5042578;28;20055;-70
2020/12/31 06:57:35;;;;;;;18.30;16.05;;;2.00;99.90;;;;;;5026406;28;20045;-70
2020/12/31 07:00:03;;;;;;;22.40;19.15;;;2.00;99.90;;;;;;5028921;28;20068;-70
2020/12/31 07:02:42;;;;;;;26.17;20.60;;;2.00;99.90;;;;;;5041443;28;20674;-71
2020/12/31 07:05:21;;;;;;;21.55;18.38;;;2.00;99.90;;;;;;5043209;28;20061;-70
2020/12/31 07:07:48;;;;;;;29.20;21.27;;;2.00;99.90;;;;;;5039247;28;20514;-70
2020/12/31 07:10:15;;;;;;;28.70;21.75;;;2.10;99.90;;;;;;5029637;28;20510;-70
2020/12/31 07:12:45;;;;;;;21.65;19.33;;;2.10;99.90;;;;;;5043145;28;20060;-70
2020/12/31 07:15:16;;;;;;;22.42;20.02;;;2.10;99.90;;;;;;5042776;28;20514;-70
2020/12/31 07:17:47;;;;;;;21.52;18.33;;;2.10;99.90;;;;;;5041943;28;20541;-71
2020/12/31 07:20:17;;;;;;;23.48;20.30;;;2.10;99.90;;;;;;5009460;28;20076;-69
2020/12/31 07:22:47;;;;;;;26.42;20.35;;;2.10;99.90;;;;;;5026274;28;20453;-70
2020/12/31 07:25:14;;;;;;;21.75;18.88;;;2.00;99.90;;;;;;5027034;28;20077;-70
2020/12/31 07:27:42;;;;;;;24.17;19.75;;;2.00;99.90;;;;;;5026507;28;20443;-71
2020/12/31 07:30:12;;;;;;;23.83;19.92;;;2.00;99.90;;;;;;5028494;28;20047;-70
2020/12/31 07:32:58;;;;;;;23.20;19.27;;;2.00;99.90;;;;;;5025940;28;20088;-70
2020/12/31 07:35:40;;;;;;;27.52;19.73;;;2.00;99.90;;;;;;5036271;28;20045;-70
2020/12/31 07:38:18;;;;;;;27.92;21.05;;;2.00;99.90;;;;;;5030870;28;20071;-70
2020/12/31 07:40:52;;;;;;;29.08;23.35;;;2.00;99.90;;;;;;5034343;28;20048;-70
2020/12/31 07:43:25;;;;;;;22.48;18.05;;;2.00;99.90;;;;;;5046116;28;20081;-70
2020/12/31 07:45:54;;;;;;;27.35;20.80;;;2.00;99.90;;;;;;5044095;28;20478;-70
2020/12/31 07:48:22;;;;;;;24.30;20.67;;;2.00;99.90;;;;;;5047186;28;20059;-71
2020/12/31 07:50:59;;;;;;;30.95;23.83;;;1.90;99.90;;;;;;5044089;28;20064;-71
2020/12/31 07:53:26;;;;;;;23.55;19.95;;;1.90;99.90;;;;;;5048021;28;20192;-71
2020/12/31 07:55:55;;;;;;;24.33;20.88;;;1.90;99.90;;;;;;5062627;28;20141;-70
2020/12/31 07:58:25;;;;;;;26.13;21.13;;;1.90;99.90;;;;;;5047621;28;20517;-71
2020/12/31 08:01:05;;;;;;;27.10;19.27;;;1.90;99.90;;;;;;5046831;28;20143;-71
2020/12/31 08:03:32;;;;;;;33.58;25.92;;;1.90;99.90;;;;;;5027037;28;20137;-70
2020/12/31 08:06:00;;;;;;;33.90;24.45;;;1.90;99.90;;;;;;5038304;28;20041;-70
2020/12/31 08:08:27;;;;;;;28.95;23.00;;;1.90;99.90;;;;;;5042787;28;20521;-71
2020/12/31 08:10:53;;;;;;;34.33;25.63;;;1.90;99.90;;;;;;5045285;28;20037;-71
2020/12/31 08:13:20;;;;;;;31.13;24.75;;;1.90;99.90;;;;;;5046500;28;20052;-71
2020/12/31 08:15:54;;;;;;;23.05;20.00;;;1.90;99.90;;;;;;5040010;28;20049;-71
2020/12/31 08:18:22;;;;;;;30.23;24.77;;;1.80;99.90;;;;;;5013143;28;20505;-71
2020/12/31 08:20:51;;;;;;;33.08;25.98;;;1.80;99.90;;;;;;5038691;28;20500;-71
2020/12/31 08:23:29;;;;;;;31.10;23.95;;;1.90;99.90;;;;;;5036475;28;20540;-70
2020/12/31 08:25:57;;;;;;;29.50;23.95;;;1.80;99.90;;;;;;5026895;28;20044;-71
2020/12/31 08:28:23;;;;;;;35.47;24.20;;;1.90;99.90;;;;;;5032103;28;20118;-70
2020/12/31 08:30:50;;;;;;;32.30;23.42;;;1.90;99.90;;;;;;5040735;28;20041;-70
2020/12/31 08:33:23;;;;;;;28.73;20.65;;;1.80;99.90;;;;;;5017042;28;20589;-71
2020/12/31 08:35:50;;;;;;;32.58;23.80;;;1.80;99.90;;;;;;5038696;28;20514;-71
2020/12/31 08:38:18;;;;;;;30.90;23.35;;;1.90;99.90;;;;;;5041272;28;20791;-71
2020/12/31 08:40:46;;;;;;;29.80;21.85;;;1.90;99.90;;;;;;5046074;28;20049;-72
2020/12/31 08:43:18;;;;;;;29.08;22.98;;;1.90;99.90;;;;;;5044790;28;20095;-72
2020/12/31 08:45:45;;;;;;;29.45;23.60;;;1.90;99.90;;;;;;5043327;28;20044;-71
2020/12/31 08:48:13;;;;;;;25.02;18.90;;;2.00;99.90;;;;;;5046421;28;20040;-71
2020/12/31 08:50:40;;;;;;;27.10;21.85;;;2.00;99.90;;;;;;5046237;28;20041;-70
2020/12/31 08:53:07;;;;;;;24.83;20.73;;;2.00;99.90;;;;;;5046288;28;20726;-71
2020/12/31 08:55:35;;;;;;;26.83;22.27;;;2.00;99.90;;;;;;5048838;28;20050;-71
2020/12/31 08:58:15;;;;;;;23.08;20.67;;;2.00;99.90;;;;;;5033183;28;20524;-71
2020/12/31 09:00:42;;;;;;;23.73;21.17;;;2.00;99.90;;;;;;5034685;28;20099;-71
2020/12/31 09:03:09;;;;;;;24.02;20.67;;;2.10;99.90;;;;;;5026177;28;20069;-71
2020/12/31 09:05:36;;;;;;;23.15;19.98;;;2.00;99.90;;;;;;5046355;28;20052;-71
2020/12/31 09:08:04;;;;;;;24.10;20.00;;;2.00;99.90;;;;;;5036956;28;20525;-71
2020/12/31 09:10:33;;;;;;;22.45;18.88;;;2.00;99.90;;;;;;5030799;28;20447;-71
2020/12/31 09:13:00;;;;;;;21.17;17.85;;;2.00;99.90;;;;;;5026485;28;20409;-72
2020/12/31 09:15:27;;;;;;;21.17;18.95;;;2.10;99.90;;;;;;5032374;28;20045;-71
2020/12/31 09:17:53;;;;;;;20.00;17.48;;;2.10;99.90;;;;;;5026677;28;20445;-71
2020/12/31 09:20:30;;;;;;;22.92;20.52;;;2.10;99.90;;;;;;5026384;28;20228;-72
2020/12/31 09:23:09;;;;;;;19.38;16.88;;;2.10;99.90;;;;;;5025678;28;20364;-72
2020/12/31 09:25:48;;;;;;;21.45;19.02;;;2.10;99.90;;;;;;5022046;28;20052;-71
2020/12/31 09:28:15;;;;;;;19.80;17.83;;;2.10;99.90;;;;;;5036880;28;20079;-71
2020/12/31 09:30:42;;;;;;;17.48;15.88;;;2.20;99.90;;;;;;5043594;28;20135;-70
2020/12/31 09:33:08;;;;;;;20.13;18.17;;;2.20;99.90;;;;;;5023189;28;20055;-71
2020/12/31 09:35:34;;;;;;;22.25;19.90;;;2.20;99.90;;;;;;5053882;28;20037;-70
2020/12/31 09:38:01;;;;;;;17.08;15.38;;;2.20;99.90;;;;;;5028886;28;20119;-71
2020/12/31 09:40:28;;;;;;;18.95;17.08;;;2.30;99.90;;;;;;5043981;28;20040;-70
2020/12/31 09:42:55;;;;;;;18.50;16.45;;;2.30;99.90;;;;;;5035097;28;20115;-72
2020/12/31 09:45:21;;;;;;;17.27;15.88;;;2.30;99.90;;;;;;5034785;28;20140;-71
2020/12/31 09:47:48;;;;;;;20.08;18.20;;;2.30;99.90;;;;;;5033213;28;20059;-71
2020/12/31 09:50:14;;;;;;;18.33;16.65;;;2.30;99.90;;;;;;5033642;28;20049;-69
2020/12/31 09:52:41;;;;;;;17.58;16.08;;;2.30;99.90;;;;;;5042856;28;20501;-70
2020/12/31 09:55:27;;;;;;;18.05;16.65;;;2.40;99.90;;;;;;5040002;28;20052;-71
2020/12/31 09:57:53;;;;;;;19.60;17.80;;;2.40;99.90;;;;;;5035926;28;20047;-70
2020/12/31 10:00:20;;;;;;;18.80;17.20;;;2.50;99.90;;;;;;5043547;28;20053;-71
2020/12/31 10:02:46;;;;;;;18.13;16.58;;;2.50;99.90;;;;;;5035695;28;20068;-71
2020/12/31 10:05:12;;;;;;;18.83;17.23;;;2.60;99.90;;;;;;5038620;28;20049;-71
2020/12/31 10:07:39;;;;;;;20.08;18.27;;;2.60;99.90;;;;;;5031793;28;20065;-70
2020/12/31 10:10:05;;;;;;;19.67;17.88;;;2.70;99.90;;;;;;5039267;28;20420;-71
2020/12/31 10:12:32;;;;;;;24.13;21.55;;;2.70;99.90;;;;;;5032995;28;20046;-71
2020/12/31 10:14:58;;;;;;;24.73;21.50;;;2.60;99.90;;;;;;5023389;28;20572;-70
2020/12/31 10:17:24;;;;;;;19.83;18.13;;;2.70;99.90;;;;;;5023236;28;20055;-71
2020/12/31 10:19:51;;;;;;;20.48;18.52;;;2.70;99.90;;;;;;5044042;28;20162;-72
2020/12/31 10:22:17;;;;;;;19.25;17.58;;;2.80;99.90;;;;;;5044238;28;20144;-71
2020/12/31 10:24:44;;;;;;;18.05;16.65;;;2.80;99.90;;;;;;5044967;28;20045;-72
2020/12/31 10:27:10;;;;;;;19.17;17.55;;;2.80;99.90;;;;;;5033581;28;20496;-71
2020/12/31 10:29:37;;;;;;;21.38;19.45;;;2.80;99.90;;;;;;5027346;28;20172;-71
2020/12/31 10:32:04;;;;;;;19.48;17.88;;;2.80;99.90;;;;;;5023573;28;20053;-71
2020/12/31 10:34:30;;;;;;;17.27;15.98;;;2.80;99.90;;;;;;5026550;28;20130;-70
2020/12/31 10:36:57;;;;;;;18.77;17.38;;;2.80;99.90;;;;;;5034449;28;20045;-70
2020/12/31 10:39:24;;;;;;;17.58;16.20;;;2.80;99.90;;;;;;5044003;28;20148;-71
2020/12/31 10:41:51;;;;;;;17.65;16.05;;;2.80;99.90;;;;;;5032304;28;20060;-71
2020/12/31 10:44:18;;;;;;;18.67;16.92;;;2.80;99.90;;;;;;5022161;28;20278;-72
2020/12/31 10:46:45;;;;;;;19.80;18.20;;;2.70;99.90;;;;;;5021817;28;20136;-71
2020/12/31 10:49:12;;;;;;;18.15;16.83;;;2.80;99.90;;;;;;5038294;28;20540;-70
2020/12/31 10:51:40;;;;;;;19.77;18.20;;;2.90;99.90;;;;;;5042692;28;20053;-70
2020/12/31 10:54:07;;;;;;;18.08;16.85;;;2.90;99.90;;;;;;5023211;28;20068;-71
2020/12/31 10:56:35;;;;;;;20.10;18.30;;;2.90;99.90;;;;;;5029344;28;20052;-69
2020/12/31 10:59:01;;;;;;;19.58;18.00;;;2.90;99.90;;;;;;5039905;28;20531;-70
2020/12/31 11:01:28;;;;;;;20.70;18.92;;;2.90;99.90;;;;;;5042068;28;20049;-71
2020/12/31 11:03:54;;;;;;;25.48;21.42;;;2.90;99.90;;;;;;5039081;28;20064;-71
2020/12/31 11:06:22;;;;;;;20.35;18.75;;;3.00;99.90;;;;;;5034300;28;20050;-71
2020/12/31 11:08:48;;;;;;;19.13;17.67;;;3.00;99.90;;;;;;5039589;28;20131;-71
2020/12/31 11:11:16;;;;;;;18.40;16.90;;;3.00;99.90;;;;;;5040904;28;20533;-71
2020/12/31 11:13:43;;;;;;;16.35;15.25;;;2.90;99.90;;;;;;5040968;28;20056;-71
2020/12/31 11:16:09;;;;;;;17.23;16.02;;;2.90;99.90;;;;;;5034594;28;20486;-70
2020/12/31 11:18:36;;;;;;;16.77;15.63;;;2.90;99.90;;;;;;5040563;28;20122;-70
2020/12/31 11:21:02;;;;;;;17.63;16.30;;;2.90;99.90;;;;;;5029733;28;20045;-71
2020/12/31 11:23:29;;;;;;;16.33;15.18;;;2.90;99.90;;;;;;5042821;28;20049;-72
2020/12/31 11:25:55;;;;;;;24.38;20.35;;;2.90;99.90;;;;;;5036047;28;20140;-70
2020/12/31 11:28:21;;;;;;;17.13;16.02;;;2.90;99.90;;;;;;5035311;28;20158;-71
2020/12/31 11:30:49;;;;;;;16.08;15.10;;;2.80;99.90;;;;;;5043143;28;20060;-71
2020/12/31 11:33:15;;;;;;;16.30;15.20;;;2.80;99.90;;;;;;5042217;28;20052;-70
2020/12/31 11:35:41;;;;;;;18.08;16.77;;;2.80;99.90;;;;;;5040782;28;20049;-71
2020/12/31 11:38:07;;;;;;;19.23;17.42;;;2.80;99.90;;;;;;5035268;28;20053;-70
2020/12/31 11:40:34;;;;;;;63.53;31.90;;;2.80;99.90;;;;;;5031315;28;20479;-70
2020/12/31 11:43:01;;;;;;;20.80;19.02;;;2.80;99.90;;;;;;5038890;28;20053;-70
2020/12/31 11:45:27;;;;;;;19.73;17.70;;;2.90;99.90;;;;;;5042912;28;20502;-70
2020/12/31 11:47:53;;;;;;;19.38;17.58;;;2.90;99.90;;;;;;5041255;28;20049;-70
2020/12/31 11:50:20;;;;;;;28.48;24.27;;;2.90;99.90;;;;;;5035718;28;20052;-70
2020/12/31 11:52:46;;;;;;;19.70;17.98;;;2.90;99.90;;;;;;5066542;28;20064;-70
2020/12/31 11:55:12;;;;;;;17.98;16.70;;;2.90;99.90;;;;;;5042836;28;20063;-71
2020/12/31 11:57:39;;;;;;;17.77;16.58;;;2.90;99.90;;;;;;5036752;28;20075;-70
2020/12/31 12:00:05;;;;;;;17.25;15.85;;;2.90;99.90;;;;;;5043170;28;20514;-69
2020/12/31 12:02:32;;;;;;;15.75;14.60;;;2.90;99.90;;;;;;5041828;28;20076;-70
2020/12/31 12:04:58;;;;;;;16.80;15.65;;;2.90;99.90;;;;;;5042523;28;20244;-70
2020/12/31 12:07:24;;;;;;;15.77;14.68;;;2.90;99.90;;;;;;5023532;28;20456;-71
2020/12/31 12:09:51;;;;;;;20.20;18.75;;;2.80;99.90;;;;;;5024690;28;20041;-70
2020/12/31 12:12:19;;;;;;;18.98;17.48;;;2.80;99.90;;;;;;5011888;28;20054;-70
2020/12/31 12:14:45;;;;;;;19.65;18.20;;;2.80;99.90;;;;;;5005242;28;20070;-71
2020/12/31 12:17:12;;;;;;;15.57;14.70;;;2.80;99.90;;;;;;5033506;28;20060;-70
2020/12/31 12:19:38;;;;;;;17.48;16.17;;;2.90;99.90;;;;;;5037347;28;20057;-70
2020/12/31 12:22:04;;;;;;;16.75;15.75;;;2.90;99.90;;;;;;5041073;28;20056;-70
2020/12/31 12:24:31;;;;;;;31.50;26.52;;;2.90;99.90;;;;;;5024672;28;20643;-70
2020/12/31 12:26:57;;;;;;;18.40;16.92;;;2.90;99.90;;;;;;5032475;28;20056;-70
2020/12/31 12:29:23;;;;;;;18.50;17.27;;;3.00;99.90;;;;;;5044997;28;20080;-69
2020/12/31 12:31:50;;;;;;;17.73;16.42;;;3.00;99.90;;;;;;5044600;28;20053;-70
2020/12/31 12:34:16;;;;;;;16.60;15.23;;;3.00;99.90;;;;;;5044105;28;20061;-69
2020/12/31 12:36:47;;;;;;;17.17;15.77;;;2.90;99.90;;;;;;5032272;28;20049;-69
2020/12/31 12:39:13;;;;;;;18.65;17.25;;;2.80;99.90;;;;;;5045014;28;20504;-71
2020/12/31 12:41:39;;;;;;;19.05;17.45;;;2.70;99.90;;;;;;5035359;28;20051;-70